createdAt,value
2023-04-16T00:01:53.355Z,102835.84
2023-04-16T00:04:21.494Z,102836.69
2023-04-16T00:06:49.474Z,102837.53
2023-04-16T00:09:17.389Z,102832.38
2023-04-16T00:11:46.671Z,102826.38
2023-04-16T00:14:14.476Z,102822.06
2023-04-16T00:16:42.514Z,102818.66
2023-04-16T00:19:10.885Z,102825.53
2023-04-16T00:21:39.176Z,102816.91
2023-04-16T00:24:07.254Z,102817.78
2023-04-16T00:26:35.126Z,102820.38
2023-04-16T00:29:04.500Z,102820.38
2023-04-16T00:31:35.002Z,102816.06
2023-04-16T00:34:02.939Z,102826.38
2023-04-16T00:36:31.013Z,102819.53
2023-04-16T00:39:01.563Z,102819.50
2023-04-16T00:41:29.418Z,102803.19
2023-04-16T00:43:57.360Z,102817.78
2023-04-16T00:46:27.511Z,102816.91
2023-04-16T00:48:56.033Z,102822.06
2023-04-16T00:51:24.259Z,102819.53
2023-04-16T00:53:52.329Z,102815.19
2023-04-16T00:56:20.691Z,102803.19
2023-04-16T00:58:48.969Z,102815.19
2023-04-16T01:01:16.949Z,102810.03
2023-04-16T01:03:48.967Z,102819.50
2023-04-16T01:06:18.812Z,102814.34
2023-04-16T01:08:48.302Z,102816.06
2023-04-16T01:11:16.892Z,102821.19
2023-04-16T01:13:44.860Z,102812.59
2023-04-16T01:16:13.645Z,102810.88
2023-04-16T01:18:41.673Z,102818.63
2023-04-16T01:21:11.193Z,102816.03
2023-04-16T01:23:39.059Z,102815.19
2023-04-16T01:26:07.006Z,102821.19
2023-04-16T01:28:34.955Z,102821.19
2023-04-16T01:31:02.907Z,102810.88
2023-04-16T01:33:30.922Z,102813.47
2023-04-16T01:35:58.851Z,102816.06
2023-04-16T01:38:28.257Z,102809.19
2023-04-16T01:40:59.450Z,102807.44
2023-04-16T01:43:27.397Z,102795.44
2023-04-16T01:46:10.087Z,102788.56
2023-04-16T01:48:38.247Z,102799.72
2023-04-16T01:51:06.640Z,102796.28
2023-04-16T01:53:37.121Z,102795.41
2023-04-16T01:56:05.798Z,102794.53
2023-04-16T01:58:34.439Z,102794.53
2023-04-16T02:01:02.528Z,102796.28
2023-04-16T02:03:31.830Z,102793.72
2023-04-16T02:05:59.824Z,102791.97
2023-04-16T02:08:27.849Z,102794.53
2023-04-16T02:10:57.961Z,102797.13
2023-04-16T02:13:26.120Z,102796.28
2023-04-16T02:15:54.116Z,102791.94
2023-04-16T02:18:22.110Z,102791.13
2023-04-16T02:20:50.639Z,102791.09
2023-04-16T02:23:18.602Z,102797.13
2023-04-16T02:25:47.649Z,102791.94
2023-04-16T02:28:18.017Z,102791.09
2023-04-16T02:30:46.302Z,102788.53
2023-04-16T02:33:14.288Z,102792.81
2023-04-16T02:35:42.539Z,102791.09
2023-04-16T02:38:10.568Z,102788.53
2023-04-16T02:40:38.400Z,102792.81
2023-04-16T02:43:06.269Z,102795.38
2023-04-16T02:45:35.608Z,102795.38
2023-04-16T02:48:03.613Z,102791.09
2023-04-16T02:50:31.563Z,102791.97
2023-04-16T02:52:59.523Z,102793.69
2023-04-16T02:55:28.220Z,102791.97
2023-04-16T02:57:56.072Z,102797.09
2023-04-16T03:00:23.942Z,102794.50
2023-04-16T03:02:53.398Z,102790.16
2023-04-16T03:05:21.636Z,102789.34
2023-04-16T03:07:50.688Z,102798.75
2023-04-16T03:10:18.498Z,102792.75
2023-04-16T03:12:46.390Z,102793.56
2023-04-16T03:15:14.389Z,102800.41
2023-04-16T03:17:42.324Z,102790.97
2023-04-16T03:20:12.438Z,102793.56
2023-04-16T03:22:40.502Z,102796.09
2023-04-16T03:25:09.414Z,102794.41
2023-04-16T03:27:37.534Z,102802.09
2023-04-16T03:30:06.514Z,102784.06
2023-04-16T03:32:34.477Z,102789.19
2023-04-16T03:35:02.348Z,102796.94
2023-04-16T03:37:32.008Z,102794.38
2023-04-16T03:40:00.055Z,102796.06
2023-04-16T03:42:28.221Z,102796.06
2023-04-16T03:44:56.097Z,102792.66
2023-04-16T03:47:24.322Z,102796.97
2023-04-16T03:49:52.503Z,102801.25
2023-04-16T03:52:20.369Z,102798.66
2023-04-16T03:54:49.677Z,102800.41
2023-04-16T03:57:17.551Z,102801.28
2023-04-16T03:59:45.488Z,102800.44
2023-04-16T04:02:13.404Z,102797.03
2023-04-16T04:04:41.519Z,102793.59
2023-04-16T04:07:09.393Z,102793.59
2023-04-16T04:09:37.330Z,102797.88
2023-04-16T04:12:06.699Z,102790.19
2023-04-16T04:14:39.683Z,102793.63
2023-04-16T04:17:07.766Z,102799.69
2023-04-16T04:19:36.268Z,102800.53
2023-04-16T04:22:04.976Z,102795.38
2023-04-16T04:24:32.957Z,102809.97
2023-04-16T04:27:01.798Z,102805.69
2023-04-16T04:29:31.097Z,102802.25
2023-04-16T04:31:59.144Z,102807.41
2023-04-16T04:34:26.989Z,102808.28
2023-04-16T04:36:54.868Z,102808.28
2023-04-16T04:39:22.739Z,102811.75
2023-04-16T04:41:50.749Z,102808.31
2023-04-16T04:44:18.612Z,102813.47
2023-04-16T04:46:47.832Z,102799.72
2023-04-16T04:49:15.784Z,102800.59
2023-04-16T04:51:43.737Z,102795.44
2023-04-16T04:54:11.792Z,102798.88
2023-04-16T04:56:40.012Z,102792.00
2023-04-16T04:59:08.241Z,102794.56
2023-04-16T05:01:36.375Z,102804.03
2023-04-16T05:04:06.427Z,102795.44
2023-04-16T05:06:34.127Z,102802.31
2023-04-16T05:09:02.089Z,102804.91
2023-04-16T05:11:31.108Z,102808.34
2023-04-16T05:13:59.028Z,102798.03
2023-04-16T05:16:27.142Z,102804.88
2023-04-16T05:18:56.118Z,102810.91
2023-04-16T05:21:26.338Z,102813.47
2023-04-16T05:23:54.435Z,102811.75
2023-04-16T05:26:22.904Z,102809.16
2023-04-16T05:28:50.718Z,102808.28
2023-04-16T05:31:18.687Z,102807.44
2023-04-16T05:33:46.604Z,102810.00
2023-04-16T05:36:14.519Z,102809.13
2023-04-16T05:38:43.741Z,102804.81
2023-04-16T05:41:11.638Z,102807.38
2023-04-16T05:43:39.507Z,102796.19
2023-04-16T05:46:07.477Z,102804.78
2023-04-16T05:48:35.404Z,102804.78
2023-04-16T05:51:03.394Z,102809.94
2023-04-16T05:53:31.282Z,102805.59
2023-04-16T05:56:00.601Z,102809.03
2023-04-16T05:58:28.477Z,102801.25
2023-04-16T06:00:56.568Z,102801.22
2023-04-16T06:03:24.559Z,102808.97
2023-04-16T06:05:52.597Z,102803.75
2023-04-16T06:08:20.774Z,102804.53
2023-04-16T06:10:51.353Z,102807.97
2023-04-16T06:13:20.757Z,102807.06
2023-04-16T06:15:49.016Z,102805.34
2023-04-16T06:18:16.977Z,102802.66
2023-04-16T06:20:45.082Z,102800.00
2023-04-16T06:23:12.917Z,102802.56
2023-04-16T06:25:40.928Z,102804.16
2023-04-16T06:28:08.793Z,102800.19
2023-04-16T06:30:38.249Z,102797.75
2023-04-16T06:33:06.643Z,102799.00
2023-04-16T06:35:34.576Z,102793.72
2023-04-16T06:38:02.475Z,102802.91
2023-04-16T06:40:30.591Z,102798.72
2023-04-16T06:42:58.549Z,102794.41
2023-04-16T06:45:26.391Z,102796.00
2023-04-16T06:47:55.800Z,102802.56
2023-04-16T06:50:23.748Z,102801.41
2023-04-16T06:52:51.747Z,102803.09
2023-04-16T06:55:19.737Z,102806.59
2023-04-16T06:57:47.746Z,102806.66
2023-04-16T07:00:15.898Z,102804.97
2023-04-16T07:02:43.890Z,102810.09
2023-04-16T07:05:13.271Z,102807.44
2023-04-16T07:07:41.200Z,102807.34
2023-04-16T07:10:09.971Z,102802.91
2023-04-16T07:12:38.028Z,102802.78
2023-04-16T07:15:07.310Z,102808.81
2023-04-16T07:17:35.298Z,102801.75
2023-04-16T07:20:03.230Z,102811.91
2023-04-16T07:22:32.511Z,102798.81
2023-04-16T07:25:00.472Z,102805.63
2023-04-16T07:27:28.326Z,102799.50
2023-04-16T07:29:56.218Z,102802.78
2023-04-16T07:32:24.420Z,102801.00
2023-04-16T07:34:52.382Z,102795.59
2023-04-16T07:37:20.408Z,102788.56
2023-04-16T07:39:49.636Z,102790.81
2023-04-16T07:42:17.494Z,102794.22
2023-04-16T07:44:45.469Z,102791.59
2023-04-16T07:47:13.345Z,102793.19
2023-04-16T07:49:41.289Z,102790.41
2023-04-16T07:52:09.247Z,102794.56
2023-04-16T07:54:37.197Z,102798.19
2023-04-16T07:57:06.523Z,102800.53
2023-04-16T07:59:34.417Z,102802.84
2023-04-16T08:02:02.705Z,102800.16
2023-04-16T08:04:30.892Z,102796.34
2023-04-16T08:06:58.900Z,102792.13
2023-04-16T08:09:28.563Z,102793.88
2023-04-16T08:11:56.472Z,102782.25
2023-04-16T08:14:25.785Z,102790.03
2023-04-16T08:16:53.720Z,102790.88
2023-04-16T08:19:21.588Z,102790.81
2023-04-16T08:21:49.509Z,102795.69
2023-04-16T08:24:17.488Z,102791.09
2023-04-16T08:26:45.459Z,102788.47
2023-04-16T08:29:13.429Z,102786.66
2023-04-16T08:31:43.269Z,102797.72
2023-04-16T08:34:12.488Z,102788.06
2023-04-16T08:36:41.942Z,102792.25
2023-04-16T08:39:10.146Z,102794.50
2023-04-16T08:41:42.061Z,102792.72
2023-04-16T08:44:11.274Z,102788.13
2023-04-16T08:46:41.750Z,102783.72
2023-04-16T08:49:17.992Z,102782.75
2023-04-16T08:51:51.946Z,102797.16
2023-04-16T08:54:32.389Z,102784.97
2023-04-16T08:57:01.443Z,102782.06
2023-04-16T08:59:30.717Z,102794.34
2023-04-16T09:02:00.168Z,102792.31
2023-04-16T09:04:30.149Z,102781.94
2023-04-16T09:06:59.964Z,102794.75
2023-04-16T09:09:28.553Z,102787.50
2023-04-16T09:11:57.516Z,102791.53
2023-04-16T09:14:26.265Z,102783.56
2023-04-16T09:16:55.670Z,102782.97
2023-04-16T09:19:25.500Z,102787.25
2023-04-16T09:21:55.021Z,102788.13
2023-04-16T09:24:23.290Z,102787.81
2023-04-16T09:26:53.698Z,102789.22
2023-04-16T09:29:35.995Z,102785.69
2023-04-16T09:32:05.465Z,102790.22
2023-04-16T09:34:34.520Z,102800.69
2023-04-16T09:37:19.365Z,102792.84
2023-04-16T09:39:55.024Z,102783.09
2023-04-16T09:42:24.508Z,102784.16
2023-04-16T09:44:52.763Z,102784.91
2023-04-16T09:47:21.480Z,102782.13
2023-04-16T09:49:49.577Z,102783.63
2023-04-16T09:52:20.041Z,102767.28
2023-04-16T09:54:49.588Z,102779.22
2023-04-16T09:57:21.865Z,102779.78
2023-04-16T09:59:50.384Z,102769.72
2023-04-16T10:02:18.674Z,102774.94
2023-04-16T10:04:48.350Z,102774.06
2023-04-16T10:07:16.575Z,102773.38
2023-04-16T10:09:45.929Z,102769.56
2023-04-16T10:12:13.904Z,102768.34
2023-04-16T10:14:42.294Z,102768.47
2023-04-16T10:17:10.642Z,102768.13
2023-04-16T10:19:38.977Z,102769.03
2023-04-16T10:22:06.954Z,102764.78
2023-04-16T10:24:36.158Z,102761.47
2023-04-16T10:27:05.458Z,102758.72
2023-04-16T10:29:34.563Z,102757.00
2023-04-16T10:32:02.782Z,102755.88
2023-04-16T10:34:32.506Z,102762.44
2023-04-16T10:37:00.416Z,102757.03
2023-04-16T10:39:29.622Z,102752.34
2023-04-16T10:42:11.805Z,102754.06
2023-04-16T10:44:43.403Z,102758.13
2023-04-16T10:47:14.374Z,102754.53
2023-04-16T10:49:43.830Z,102748.16
2023-04-16T10:52:13.455Z,102743.31
2023-04-16T10:54:42.013Z,102744.22
2023-04-16T10:57:17.939Z,102741.25
2023-04-16T10:59:46.514Z,102749.44
2023-04-16T11:02:16.614Z,102743.41
2023-04-16T11:04:46.034Z,102739.00
2023-04-16T11:07:19.798Z,102742.69
2023-04-16T11:09:59.870Z,102740.16
2023-04-16T11:12:37.701Z,102740.34
2023-04-16T11:15:08.113Z,102741.91
2023-04-16T11:17:41.525Z,102752.81
2023-04-16T11:20:19.661Z,102744.47
2023-04-16T11:22:48.970Z,102741.84
2023-04-16T11:25:21.151Z,102751.50
2023-04-16T11:27:50.821Z,102737.59
2023-04-16T11:30:19.728Z,102745.06
2023-04-16T11:32:47.861Z,102734.63
2023-04-16T11:35:17.304Z,102743.44
2023-04-16T11:37:45.858Z,102732.88
2023-04-16T11:40:14.269Z,102734.50
2023-04-16T11:42:44.251Z,102736.59
2023-04-16T11:45:14.124Z,102732.97
2023-04-16T11:47:46.622Z,102726.88
2023-04-16T11:50:21.516Z,102731.00
2023-04-16T11:52:50.003Z,102727.44
2023-04-16T11:55:18.358Z,102723.88
2023-04-16T11:57:46.878Z,102728.50
2023-04-16T12:00:16.748Z,102729.47
2023-04-16T12:02:46.610Z,102733.06
2023-04-16T12:05:31.896Z,102728.16
2023-04-16T12:08:00.872Z,102725.38
2023-04-16T12:10:29.329Z,102727.03
2023-04-16T12:13:11.513Z,102719.59
2023-04-16T12:15:48.301Z,102721.13
2023-04-16T12:18:16.978Z,102725.09
2023-04-16T12:20:46.229Z,102726.63
2023-04-16T12:23:24.567Z,102717.66
2023-04-16T12:25:52.523Z,102722.13
2023-04-16T12:28:32.074Z,102719.84
2023-04-16T12:31:01.739Z,102712.97
2023-04-16T12:33:29.993Z,102718.16
2023-04-16T12:35:58.178Z,102719.50
2023-04-16T12:38:26.814Z,102718.16
2023-04-16T12:40:57.329Z,102713.19
2023-04-16T12:43:25.738Z,102715.03
2023-04-16T12:45:53.853Z,102708.72
2023-04-16T12:48:23.170Z,102713.22
2023-04-16T12:50:51.120Z,102715.03
2023-04-16T12:53:19.090Z,102715.91
2023-04-16T12:55:47.041Z,102713.34
2023-04-16T12:58:15.010Z,102720.09
2023-04-16T13:00:42.820Z,102719.06
2023-04-16T13:03:10.860Z,102719.22
2023-04-16T13:05:40.972Z,102713.97
2023-04-16T13:08:08.976Z,102713.06
2023-04-16T13:10:36.930Z,102710.00
2023-04-16T13:13:04.846Z,102703.31
2023-04-16T13:15:32.829Z,102707.38
2023-04-16T13:18:00.896Z,102710.34
2023-04-16T13:20:28.779Z,102709.47
2023-04-16T13:22:58.470Z,102708.72
2023-04-16T13:25:26.478Z,102699.41
2023-04-16T13:27:54.347Z,102696.69
2023-04-16T13:30:22.159Z,102698.34
2023-04-16T13:32:50.088Z,102693.25
2023-04-16T13:35:18.177Z,102697.56
2023-04-16T13:37:46.016Z,102696.34
2023-04-16T13:40:15.293Z,102697.06
2023-04-16T13:42:43.409Z,102694.50
2023-04-16T13:45:11.414Z,102691.09
2023-04-16T13:47:40.394Z,102696.41
2023-04-16T13:50:09.740Z,102689.53
2023-04-16T13:52:37.926Z,102686.31
2023-04-16T13:55:06.567Z,102693.13
2023-04-16T13:57:36.444Z,102692.16
2023-04-16T14:00:04.834Z,102690.19
2023-04-16T14:05:00.734Z,102692.00
2023-04-16T14:07:29.245Z,102692.75
2023-04-16T14:09:57.145Z,102684.41
2023-04-16T14:12:25.118Z,102683.69
2023-04-16T14:14:54.394Z,102690.88
2023-04-16T14:17:22.310Z,102688.66
2023-04-16T14:19:50.273Z,102695.53
2023-04-16T14:22:18.418Z,102693.19
2023-04-16T14:24:46.319Z,102685.47
2023-04-16T14:27:14.223Z,102694.91
2023-04-16T14:29:42.394Z,102697.84
2023-04-16T14:32:11.715Z,102692.75
2023-04-16T14:34:39.593Z,102693.63
2023-04-16T14:37:07.678Z,102686.31
2023-04-16T14:39:36.482Z,102689.53
2023-04-16T14:42:04.468Z,102694.00
2023-04-16T14:44:32.387Z,102691.22
2023-04-16T14:47:00.306Z,102697.41
2023-04-16T14:49:29.701Z,102694.44
2023-04-16T14:51:57.776Z,102687.34
2023-04-16T14:54:26.505Z,102687.34
2023-04-16T14:56:54.346Z,102690.34
2023-04-16T14:59:22.260Z,102692.88
2023-04-16T15:01:50.478Z,102696.34
2023-04-16T15:04:18.597Z,102695.00
2023-04-16T15:06:47.998Z,102688.13
2023-04-16T15:09:15.875Z,102694.06
2023-04-16T15:11:43.740Z,102703.47
2023-04-16T15:14:11.726Z,102693.19
2023-04-16T15:16:39.806Z,102700.97
2023-04-16T15:19:07.958Z,102707.53
2023-04-16T15:21:35.899Z,102705.13
2023-04-16T15:24:05.677Z,102698.88
2023-04-16T15:26:33.581Z,102703.41
2023-04-16T15:29:01.618Z,102702.06
2023-04-16T15:31:29.569Z,102709.78
2023-04-16T15:33:57.680Z,102705.41
2023-04-16T15:36:26.671Z,102702.63
2023-04-16T15:38:54.672Z,102713.00
2023-04-16T15:41:24.579Z,102709.94
2023-04-16T15:43:52.432Z,102719.44
2023-04-16T15:46:20.413Z,102714.31
2023-04-16T15:48:48.348Z,102717.22
2023-04-16T15:51:16.392Z,102711.97
2023-04-16T15:53:45.319Z,102723.75
2023-04-16T15:56:13.296Z,102728.28
2023-04-16T15:58:42.611Z,102723.09
2023-04-16T16:01:10.520Z,102729.56
2023-04-16T16:03:38.701Z,102728.06
2023-04-16T16:06:08.476Z,102723.78
2023-04-16T16:08:38.269Z,102729.25
2023-04-16T16:11:06.371Z,102733.75
2023-04-16T16:13:35.961Z,102729.91
2023-04-16T16:16:05.602Z,102736.31
2023-04-16T16:18:33.514Z,102734.78
2023-04-16T16:21:01.569Z,102739.47
2023-04-16T16:23:29.676Z,102736.03
2023-04-16T16:25:57.676Z,102738.97
2023-04-16T16:28:26.167Z,102740.03
2023-04-16T16:30:55.779Z,102739.44
2023-04-16T16:33:25.080Z,102743.28
2023-04-16T16:35:52.938Z,102741.00
2023-04-16T16:38:20.939Z,102740.31
2023-04-16T16:40:48.903Z,102746.59
2023-04-16T16:43:16.928Z,102759.03
2023-04-16T16:45:45.095Z,102757.66
2023-04-16T16:48:13.163Z,102762.31
2023-04-16T16:50:42.368Z,102759.06
2023-04-16T16:53:10.568Z,102767.88
2023-04-16T16:55:38.527Z,102764.66
2023-04-16T16:58:06.354Z,102767.44
2023-04-16T17:00:34.374Z,102773.81
2023-04-16T17:03:02.453Z,102772.41
2023-04-16T17:05:30.544Z,102764.03
2023-04-16T17:07:59.916Z,102778.91
2023-04-16T17:10:27.817Z,102773.06
2023-04-16T17:12:56.035Z,102779.50
2023-04-16T17:15:24.136Z,102778.81
2023-04-16T17:17:52.148Z,102777.44
2023-04-16T17:20:20.259Z,102781.22
2023-04-16T17:22:48.194Z,102774.56
2023-04-16T17:25:17.538Z,102790.56
2023-04-16T17:27:45.483Z,102786.38
2023-04-16T17:30:13.819Z,102787.47
2023-04-16T17:32:41.785Z,102793.81
2023-04-16T17:35:11.007Z,102797.63
2023-04-16T17:37:38.962Z,102792.69
2023-04-16T17:40:10.122Z,102805.16
2023-04-16T17:42:39.974Z,102802.69
2023-04-16T17:45:08.879Z,102816.88
2023-04-16T17:47:37.020Z,102819.94
2023-04-16T17:50:05.577Z,102821.88
2023-04-16T17:52:33.495Z,102823.94
2023-04-16T17:55:03.671Z,102823.25
2023-04-16T17:57:32.188Z,102826.19
2023-04-16T18:00:01.578Z,102837.00
2023-04-16T18:02:29.659Z,102836.38
2023-04-16T18:04:57.688Z,102834.16
2023-04-16T18:07:26.628Z,102836.97
2023-04-16T18:09:54.439Z,102844.16
2023-04-16T18:12:22.388Z,102842.69
2023-04-16T18:14:50.419Z,102846.50
2023-04-16T18:17:21.894Z,102848.59
2023-04-16T18:19:49.779Z,102850.44
2023-04-16T18:22:17.683Z,102847.25
2023-04-16T18:24:45.606Z,102849.06
2023-04-16T18:27:13.441Z,102846.66
2023-04-16T18:29:44.094Z,102853.81
2023-04-16T18:32:13.157Z,102851.41
2023-04-16T18:34:42.481Z,102848.09
2023-04-16T18:37:10.471Z,102855.03
2023-04-16T18:39:38.377Z,102858.69
2023-04-16T18:42:06.462Z,102861.44
2023-04-16T18:44:36.702Z,102864.31
2023-04-16T18:47:04.776Z,102872.28
2023-04-16T18:49:32.708Z,102871.59
2023-04-16T18:52:01.952Z,102877.78
2023-04-16T18:54:29.810Z,102882.34
2023-04-16T18:56:59.683Z,102884.19
2023-04-16T18:59:28.565Z,102882.56
2023-04-16T19:01:56.760Z,102888.88
2023-04-16T19:04:24.930Z,102889.16
2023-04-16T19:06:54.914Z,102897.13
2023-04-16T19:09:26.459Z,102903.41
2023-04-16T19:11:54.366Z,102904.50
2023-04-16T19:14:22.245Z,102900.31
2023-04-16T19:16:50.144Z,102903.00
2023-04-16T19:19:18.084Z,102904.72
2023-04-16T19:21:46.013Z,102902.22
2023-04-16T19:24:13.842Z,102908.41
2023-04-16T19:26:43.145Z,102909.41
2023-04-16T19:29:11.323Z,102906.84
2023-04-16T19:31:39.466Z,102909.56
2023-04-16T19:34:07.508Z,102911.34
2023-04-16T19:36:35.485Z,102916.69
2023-04-16T19:39:03.906Z,102921.13
2023-04-16T19:41:31.772Z,102920.31
2023-04-16T19:44:01.068Z,102917.78
2023-04-16T19:46:28.976Z,102917.88
2023-04-16T19:48:56.815Z,102914.50
2023-04-16T19:51:24.657Z,102920.72
2023-04-16T19:53:53.880Z,102923.44
2023-04-16T19:56:21.758Z,102919.28
2023-04-16T19:58:49.718Z,102919.34
2023-04-16T20:01:19.111Z,102924.53
2023-04-16T20:03:46.982Z,102924.69
2023-04-16T20:06:14.937Z,102924.72
2023-04-16T20:08:44.489Z,102930.81
2023-04-16T20:11:13.052Z,102928.31
2023-04-16T20:13:41.007Z,102927.59
2023-04-16T20:16:09.410Z,102927.69
2023-04-16T20:18:41.467Z,102926.94
2023-04-16T20:21:09.850Z,102927.78
2023-04-16T20:23:37.753Z,102925.28
2023-04-16T20:26:05.647Z,102927.06
2023-04-16T20:28:33.618Z,102927.16
2023-04-16T20:31:01.514Z,102928.09
2023-04-16T20:33:29.541Z,102926.41
2023-04-16T20:35:58.789Z,102925.69
2023-04-16T20:38:29.609Z,102930.88
2023-04-16T20:41:06.587Z,102924.91
2023-04-16T20:43:38.615Z,102932.75
2023-04-16T20:46:06.757Z,102942.31
2023-04-16T20:48:34.914Z,102943.19
2023-04-16T20:51:06.517Z,102939.78
2023-04-16T20:53:34.509Z,102942.38
2023-04-16T20:56:02.467Z,102946.75
2023-04-16T20:58:30.779Z,102949.44
2023-04-16T21:00:59.078Z,102957.25
2023-04-16T21:03:27.230Z,102952.97
2023-04-16T21:05:56.852Z,102954.72
2023-04-16T21:08:26.388Z,102962.50
2023-04-16T21:10:54.348Z,102964.25
2023-04-16T21:13:22.251Z,102956.56
2023-04-16T21:15:50.189Z,102962.59
2023-04-16T21:18:18.607Z,102971.22
2023-04-16T21:20:46.595Z,102967.78
2023-04-16T21:23:15.780Z,102959.22
2023-04-16T21:25:47.366Z,102958.34
2023-04-16T21:28:15.296Z,102960.06
2023-04-16T21:30:43.355Z,102967.00
2023-04-16T21:33:12.781Z,102960.09
2023-04-16T21:35:40.734Z,102954.09
2023-04-16T21:38:08.668Z,102967.06
2023-04-16T21:40:36.614Z,102966.22
2023-04-16T21:43:06.503Z,102963.66
2023-04-16T21:45:34.342Z,102962.84
2023-04-16T21:48:02.317Z,102973.22
2023-04-16T21:50:30.206Z,102970.69
2023-04-16T21:52:58.134Z,102972.41
2023-04-16T21:55:26.160Z,102972.44
2023-04-16T21:57:54.149Z,102973.31
2023-04-16T22:00:23.460Z,102975.03
2023-04-16T22:02:56.380Z,102967.28
2023-04-16T22:05:24.393Z,102975.03
2023-04-16T22:07:52.674Z,102976.78
2023-04-16T22:10:20.728Z,102981.94
2023-04-16T22:12:48.600Z,102986.25
2023-04-16T22:15:16.524Z,102985.38
2023-04-16T22:17:47.089Z,102987.97
2023-04-16T22:20:15.924Z,102987.16
2023-04-16T22:22:44.141Z,102987.97
2023-04-16T22:25:12.631Z,102996.59
2023-04-16T22:27:40.811Z,102988.88
2023-04-16T22:30:09.682Z,102996.63
2023-04-16T22:32:37.646Z,103005.25
2023-04-16T22:35:07.488Z,103000.06
2023-04-16T22:37:35.451Z,103007.84
2023-04-16T22:40:07.576Z,103006.09
2023-04-16T22:42:35.502Z,103011.25
2023-04-16T22:45:04.560Z,103006.09
2023-04-16T22:47:32.464Z,103006.97
2023-04-16T22:50:00.618Z,103008.69
2023-04-16T22:52:30.060Z,103006.97
2023-04-16T22:54:57.999Z,103006.97
2023-04-16T22:57:26.470Z,103008.69
2023-04-16T22:59:54.379Z,103010.44
2023-04-16T23:02:22.585Z,103013.03
2023-04-16T23:04:50.555Z,103004.41
2023-04-16T23:07:18.400Z,103014.72
2023-04-16T23:09:47.687Z,103009.56
2023-04-16T23:12:15.504Z,103011.28
2023-04-16T23:14:46.140Z,103013.03
2023-04-16T23:17:14.751Z,103010.44
2023-04-16T23:19:42.649Z,103007.84
2023-04-16T23:22:10.568Z,103009.56
2023-04-16T23:24:38.433Z,103009.56
2023-04-16T23:27:07.697Z,103012.16
2023-04-16T23:29:35.611Z,103013.88
2023-04-16T23:32:03.411Z,103017.31
2023-04-16T23:34:31.764Z,103019.03
2023-04-16T23:36:59.651Z,103016.47
2023-04-16T23:39:27.501Z,103022.44
2023-04-16T23:41:55.400Z,103019.03
2023-04-16T23:44:24.664Z,103027.59
2023-04-16T23:46:52.573Z,103018.16
2023-04-16T23:49:20.572Z,103012.97
2023-04-16T23:51:48.468Z,103022.44
2023-04-16T23:54:17.156Z,103024.16
2023-04-16T23:56:45.054Z,103029.31
2023-04-16T23:59:13.022Z,103031.00
